createdAt,value
2022-10-09T00:00:37.039Z,90.00
2022-10-09T00:01:36.995Z,90.09
2022-10-09T00:02:36.956Z,90.19
2022-10-09T00:03:36.879Z,90.00
2022-10-09T00:04:36.824Z,90.09
2022-10-09T00:05:36.818Z,90.09
2022-10-09T00:06:36.722Z,90.00
2022-10-09T00:07:36.668Z,90.09
2022-10-09T00:08:36.613Z,90.09
2022-10-09T00:09:36.562Z,89.51
2022-10-09T00:10:36.507Z,89.51
2022-10-09T00:11:36.462Z,89.61
2022-10-09T00:12:36.404Z,89.71
2022-10-09T00:13:36.363Z,89.71
2022-10-09T00:14:36.300Z,89.71
2022-10-09T00:15:36.242Z,89.51
2022-10-09T00:16:36.258Z,89.42
2022-10-09T00:17:36.135Z,89.51
2022-10-09T00:18:36.100Z,89.42
2022-10-09T00:19:36.038Z,89.61
2022-10-09T00:20:35.978Z,89.51
2022-10-09T00:21:35.924Z,89.71
2022-10-09T00:22:35.872Z,89.51
2022-10-09T00:23:35.826Z,89.42
2022-10-09T00:24:35.767Z,89.61
2022-10-09T00:25:35.712Z,89.51
2022-10-09T00:26:35.676Z,89.71
2022-10-09T00:27:35.619Z,89.51
2022-10-09T00:28:38.674Z,89.51
2022-10-09T00:29:35.504Z,89.42
2022-10-09T00:30:35.522Z,89.42
2022-10-09T00:31:35.395Z,89.80
2022-10-09T00:32:35.345Z,89.80
2022-10-09T00:33:35.306Z,89.51
2022-10-09T00:34:35.238Z,89.71
2022-10-09T00:35:35.184Z,89.90
2022-10-09T00:36:35.131Z,89.90
2022-10-09T00:37:35.077Z,89.90
2022-10-09T00:38:35.032Z,90.00
2022-10-09T00:39:34.972Z,89.80
2022-10-09T00:40:34.919Z,89.23
2022-10-09T00:41:34.872Z,89.32
2022-10-09T00:42:34.813Z,88.94
2022-10-09T00:43:34.764Z,89.13
2022-10-09T00:44:34.707Z,89.32
2022-10-09T00:45:34.652Z,89.13
2022-10-09T00:46:34.871Z,89.04
2022-10-09T00:47:34.546Z,89.04
2022-10-09T00:48:34.494Z,89.04
2022-10-09T00:49:34.440Z,88.94
2022-10-09T00:50:34.389Z,88.75
2022-10-09T00:51:34.336Z,88.65
2022-10-09T00:52:34.283Z,88.84
2022-10-09T00:53:34.230Z,88.56
2022-10-09T00:54:34.179Z,89.42
2022-10-09T00:55:34.124Z,88.75
2022-10-09T00:56:34.075Z,88.56
2022-10-09T00:57:34.018Z,88.65
2022-10-09T00:58:33.971Z,89.13
2022-10-09T00:59:33.923Z,88.56
2022-10-09T01:00:33.885Z,88.56
2022-10-09T01:01:33.931Z,89.13
2022-10-09T01:02:33.815Z,88.65
2022-10-09T01:03:33.701Z,88.56
2022-10-09T01:04:33.647Z,88.65
2022-10-09T01:05:33.593Z,88.94
2022-10-09T01:06:33.540Z,88.46
2022-10-09T01:07:33.489Z,88.94
2022-10-09T01:08:33.435Z,88.84
2022-10-09T01:09:33.382Z,88.94
2022-10-09T01:10:33.327Z,88.75
2022-10-09T01:11:33.277Z,88.84
2022-10-09T01:12:33.226Z,88.94
2022-10-09T01:13:33.170Z,88.94
2022-10-09T01:14:33.122Z,88.46
2022-10-09T01:15:33.151Z,87.60
2022-10-09T01:16:33.008Z,88.27
2022-10-09T01:17:32.957Z,88.08
2022-10-09T01:18:33.007Z,88.37
2022-10-09T01:19:32.850Z,88.27
2022-10-09T01:20:32.797Z,88.17
2022-10-09T01:21:32.747Z,88.46
2022-10-09T01:22:32.690Z,88.17
2022-10-09T01:23:32.642Z,88.37
2022-10-09T01:24:32.583Z,88.37
2022-10-09T01:25:32.536Z,88.17
2022-10-09T01:26:32.478Z,88.46
2022-10-09T01:27:32.427Z,88.46
2022-10-09T01:28:32.447Z,88.27
2022-10-09T01:29:32.319Z,88.08
2022-10-09T01:30:32.270Z,87.60
2022-10-09T01:31:32.236Z,87.70
2022-10-09T01:32:32.158Z,87.98
2022-10-09T01:33:32.110Z,87.31
2022-10-09T01:34:32.055Z,87.31
2022-10-09T01:35:32.001Z,87.98
2022-10-09T01:36:31.947Z,87.98
2022-10-09T01:37:31.899Z,87.70
2022-10-09T01:38:31.841Z,87.88
2022-10-09T01:39:31.793Z,87.98
2022-10-09T01:40:31.733Z,87.70
2022-10-09T01:41:31.682Z,87.46
2022-10-09T01:42:31.628Z,87.55
2022-10-09T01:43:31.574Z,87.50
2022-10-09T01:44:31.519Z,87.70
2022-10-09T01:45:31.468Z,87.41
2022-10-09T01:46:31.480Z,87.65
2022-10-09T01:47:31.372Z,87.88
2022-10-09T01:48:31.309Z,87.50
2022-10-09T01:49:31.256Z,87.84
2022-10-09T01:50:31.207Z,87.60
2022-10-09T01:51:31.152Z,87.65
2022-10-09T01:52:31.094Z,87.37
2022-10-09T01:53:31.044Z,87.55
2022-10-09T01:54:30.989Z,87.74
2022-10-09T01:55:30.938Z,87.65
2022-10-09T01:56:30.884Z,87.31
2022-10-09T01:57:30.831Z,87.17
2022-10-09T01:58:30.774Z,87.74
2022-10-09T01:59:30.727Z,87.79
2022-10-09T02:00:30.685Z,87.94
2022-10-09T02:01:30.694Z,87.74
2022-10-09T02:02:30.587Z,87.84
2022-10-09T02:03:30.521Z,87.65
2022-10-09T02:04:30.458Z,87.46
2022-10-09T02:05:30.406Z,87.94
2022-10-09T02:06:30.349Z,87.94
2022-10-09T02:07:30.300Z,87.74
2022-10-09T02:08:30.242Z,87.94
2022-10-09T02:09:30.192Z,87.84
2022-10-09T02:10:30.136Z,87.84
2022-10-09T02:11:30.088Z,87.94
2022-10-09T02:12:30.031Z,87.94
2022-10-09T02:13:29.979Z,87.94
2022-10-09T02:14:29.923Z,87.74
2022-10-09T02:15:29.872Z,87.74
2022-10-09T02:16:33.560Z,87.65
2022-10-09T02:17:29.766Z,87.84
2022-10-09T02:18:29.711Z,87.46
2022-10-09T02:19:29.669Z,87.84
2022-10-09T02:20:29.605Z,88.03
2022-10-09T02:21:29.553Z,88.13
2022-10-09T02:22:29.497Z,88.13
2022-10-09T02:23:29.446Z,87.46
2022-10-09T02:24:29.396Z,87.94
2022-10-09T02:25:29.341Z,87.46
2022-10-09T02:26:29.285Z,87.37
2022-10-09T02:27:29.234Z,87.37
2022-10-09T02:28:29.195Z,87.55
2022-10-09T02:29:29.127Z,87.55
2022-10-09T02:30:29.074Z,87.65
2022-10-09T02:31:29.127Z,87.74
2022-10-09T02:32:28.972Z,87.74
2022-10-09T02:33:28.914Z,87.46
2022-10-09T02:34:28.858Z,87.37
2022-10-09T02:35:28.813Z,87.37
2022-10-09T02:36:28.752Z,87.55
2022-10-09T02:37:28.703Z,87.55
2022-10-09T02:38:28.654Z,87.55
2022-10-09T02:39:28.599Z,86.98
2022-10-09T02:40:28.541Z,87.74
2022-10-09T02:41:28.485Z,87.17
2022-10-09T02:42:28.434Z,87.37
2022-10-09T02:43:28.383Z,87.27
2022-10-09T02:44:28.329Z,87.17
2022-10-09T02:45:28.274Z,87.55
2022-10-09T02:46:28.252Z,87.27
2022-10-09T02:47:28.171Z,87.27
2022-10-09T02:48:28.112Z,87.65
2022-10-09T02:49:28.061Z,87.37
2022-10-09T02:50:28.121Z,87.65
2022-10-09T02:51:27.962Z,87.55
2022-10-09T02:52:27.902Z,87.46
2022-10-09T02:53:27.846Z,87.17
2022-10-09T02:54:27.793Z,86.98
2022-10-09T02:55:27.741Z,87.08
2022-10-09T02:56:27.686Z,87.17
2022-10-09T02:57:27.632Z,86.69
2022-10-09T02:58:27.582Z,86.88
2022-10-09T02:59:27.526Z,87.08
2022-10-09T03:00:27.474Z,87.46
2022-10-09T03:01:27.435Z,86.60
2022-10-09T03:02:27.493Z,87.08
2022-10-09T03:03:27.316Z,86.69
2022-10-09T03:04:27.258Z,87.17
2022-10-09T03:05:27.206Z,86.88
2022-10-09T03:06:27.152Z,86.12
2022-10-09T03:07:27.111Z,85.83
2022-10-09T03:08:27.044Z,86.31
2022-10-09T03:09:30.293Z,86.60
2022-10-09T03:10:26.943Z,86.50
2022-10-09T03:11:26.891Z,86.60
2022-10-09T03:12:26.831Z,86.79
2022-10-09T03:13:26.780Z,86.50
2022-10-09T03:14:26.723Z,86.69
2022-10-09T03:15:26.674Z,86.69
2022-10-09T03:16:26.671Z,87.08
2022-10-09T03:17:26.566Z,86.98
2022-10-09T03:18:26.511Z,86.79
2022-10-09T03:19:26.463Z,86.69
2022-10-09T03:20:26.406Z,86.69
2022-10-09T03:21:26.364Z,86.98
2022-10-09T03:22:26.296Z,86.12
2022-10-09T03:23:26.250Z,86.88
2022-10-09T03:24:26.190Z,86.69
2022-10-09T03:25:26.139Z,86.50
2022-10-09T03:26:26.095Z,86.31
2022-10-09T03:27:26.030Z,86.21
2022-10-09T03:28:26.106Z,86.31
2022-10-09T03:29:25.924Z,86.21
2022-10-09T03:30:25.891Z,86.31
2022-10-09T03:31:53.522Z,85.74
2022-10-09T03:32:25.810Z,86.12
2022-10-09T03:33:25.713Z,86.50
2022-10-09T03:34:25.655Z,85.54
2022-10-09T03:35:25.604Z,85.54
2022-10-09T03:36:25.550Z,85.74
2022-10-09T03:37:25.498Z,85.74
2022-10-09T03:38:25.441Z,86.31
2022-10-09T03:39:25.399Z,86.02
2022-10-09T03:40:25.336Z,85.64
2022-10-09T03:41:25.284Z,85.83
2022-10-09T03:42:25.228Z,86.02
2022-10-09T03:43:25.177Z,85.54
2022-10-09T03:44:25.132Z,85.74
2022-10-09T03:45:25.070Z,85.83
2022-10-09T03:46:25.134Z,86.02
2022-10-09T03:47:24.962Z,86.02
2022-10-09T03:48:24.908Z,86.12
2022-10-09T03:49:24.857Z,86.12
2022-10-09T03:50:24.800Z,86.12
2022-10-09T03:51:24.749Z,85.74
2022-10-09T03:52:24.696Z,86.31
2022-10-09T03:53:24.651Z,86.12
2022-10-09T03:54:24.590Z,86.02
2022-10-09T03:55:24.541Z,86.02
2022-10-09T03:56:24.482Z,86.12
2022-10-09T03:57:24.428Z,86.12
2022-10-09T03:58:24.375Z,86.31
2022-10-09T03:59:24.321Z,86.41
2022-10-09T04:00:24.266Z,86.41
2022-10-09T04:01:24.242Z,86.31
2022-10-09T04:02:24.193Z,85.35
2022-10-09T04:03:24.107Z,85.74
2022-10-09T04:04:24.051Z,86.02
2022-10-09T04:05:23.999Z,85.35
2022-10-09T04:06:23.945Z,85.69
2022-10-09T04:07:23.893Z,85.74
2022-10-09T04:08:23.838Z,85.50
2022-10-09T04:09:23.787Z,85.50
2022-10-09T04:10:23.733Z,85.74
2022-10-09T04:11:23.688Z,85.50
2022-10-09T04:12:23.622Z,85.64
2022-10-09T04:13:23.571Z,85.45
2022-10-09T04:14:23.521Z,85.79
2022-10-09T04:15:23.464Z,85.45
2022-10-09T04:16:23.453Z,85.54
2022-10-09T04:17:23.357Z,85.64
2022-10-09T04:18:23.309Z,85.64
2022-10-09T04:19:23.253Z,85.69
2022-10-09T04:20:23.196Z,85.64
2022-10-09T04:21:23.144Z,85.64
2022-10-09T04:22:23.090Z,85.54
2022-10-09T04:23:23.042Z,85.60
2022-10-09T04:24:22.982Z,85.74
2022-10-09T04:25:22.930Z,85.98
2022-10-09T04:26:22.874Z,85.88
2022-10-09T04:27:22.828Z,85.16
2022-10-09T04:28:22.848Z,85.16
2022-10-09T04:29:22.716Z,85.25
2022-10-09T04:30:22.663Z,85.60
2022-10-09T04:31:22.643Z,85.54
2022-10-09T04:32:22.553Z,85.12
2022-10-09T04:33:22.501Z,85.21
2022-10-09T04:34:22.446Z,85.31
2022-10-09T04:35:22.395Z,85.31
2022-10-09T04:36:22.338Z,85.21
2022-10-09T04:37:22.286Z,85.21
2022-10-09T04:38:22.233Z,85.12
2022-10-09T04:39:22.179Z,85.21
2022-10-09T04:40:22.125Z,85.31
2022-10-09T04:41:22.074Z,85.21
2022-10-09T04:42:22.016Z,84.92
2022-10-09T04:43:21.970Z,85.02
2022-10-09T04:44:21.910Z,85.12
2022-10-09T04:45:21.858Z,84.92
2022-10-09T04:46:21.802Z,85.21
2022-10-09T04:47:21.751Z,85.21
2022-10-09T04:48:21.699Z,85.31
2022-10-09T04:49:21.685Z,85.31
2022-10-09T04:50:21.692Z,85.21
2022-10-09T04:51:21.541Z,85.31
2022-10-09T04:52:21.482Z,85.88
2022-10-09T04:53:21.430Z,85.50
2022-10-09T04:54:21.376Z,84.74
2022-10-09T04:55:21.324Z,84.74
2022-10-09T04:56:21.266Z,85.21
2022-10-09T04:57:21.215Z,84.74
2022-10-09T04:58:21.853Z,85.02
2022-10-09T04:59:21.120Z,85.12
2022-10-09T05:00:21.051Z,84.92
2022-10-09T05:01:21.233Z,85.41
2022-10-09T05:02:21.000Z,85.12
2022-10-09T05:03:20.892Z,85.21
2022-10-09T05:04:20.838Z,85.12
2022-10-09T05:05:20.789Z,85.21
2022-10-09T05:06:20.730Z,85.41
2022-10-09T05:07:20.679Z,85.12
2022-10-09T05:08:20.621Z,85.12
2022-10-09T05:09:20.570Z,84.83
2022-10-09T05:10:20.516Z,85.12
2022-10-09T05:11:20.464Z,85.12
2022-10-09T05:12:20.407Z,84.83
2022-10-09T05:13:20.362Z,84.83
2022-10-09T05:14:20.303Z,84.74
2022-10-09T05:15:20.254Z,84.83
2022-10-09T05:16:20.215Z,84.74
2022-10-09T05:17:23.273Z,85.02
2022-10-09T05:18:20.089Z,85.02
2022-10-09T05:19:20.032Z,85.02
2022-10-09T05:20:19.980Z,84.64
2022-10-09T05:21:19.928Z,85.02
2022-10-09T05:22:19.872Z,85.02
2022-10-09T05:23:19.821Z,84.45
2022-10-09T05:24:19.769Z,84.55
2022-10-09T05:25:19.710Z,84.26
2022-10-09T05:26:19.660Z,84.55
2022-10-09T05:27:19.602Z,84.26
2022-10-09T05:28:19.589Z,84.16
2022-10-09T05:29:19.496Z,84.55
2022-10-09T05:30:19.445Z,84.64
2022-10-09T05:31:19.457Z,84.55
2022-10-09T05:32:19.336Z,84.26
2022-10-09T05:33:19.286Z,84.26
2022-10-09T05:34:19.229Z,84.06
2022-10-09T05:35:19.173Z,84.45
2022-10-09T05:36:19.126Z,84.35
2022-10-09T05:37:19.068Z,84.35
2022-10-09T05:38:19.013Z,84.35
2022-10-09T05:39:18.972Z,84.55
2022-10-09T05:40:18.914Z,84.64
2022-10-09T05:41:18.850Z,84.74
2022-10-09T05:42:18.800Z,84.55
2022-10-09T05:43:18.744Z,84.64
2022-10-09T05:44:18.689Z,84.55
2022-10-09T05:45:18.635Z,84.64
2022-10-09T05:46:18.613Z,84.64
2022-10-09T05:47:18.711Z,84.45
2022-10-09T05:48:18.478Z,84.64
2022-10-09T05:49:18.419Z,84.45
2022-10-09T05:50:18.367Z,84.45
2022-10-09T05:51:18.321Z,84.45
2022-10-09T05:52:18.268Z,84.35
2022-10-09T05:53:18.208Z,84.26
2022-10-09T05:54:18.152Z,84.45
2022-10-09T05:55:18.100Z,84.26
2022-10-09T05:56:18.045Z,84.26
2022-10-09T05:57:17.990Z,84.26
2022-10-09T05:58:17.941Z,84.16
2022-10-09T05:59:17.884Z,84.16
2022-10-09T06:00:17.831Z,84.16
2022-10-09T06:01:17.812Z,84.26
2022-10-09T06:02:17.777Z,84.35
2022-10-09T06:03:17.674Z,84.26
2022-10-09T06:04:17.619Z,84.26
2022-10-09T06:05:17.558Z,83.97
2022-10-09T06:06:17.514Z,84.26
2022-10-09T06:07:17.452Z,84.31
2022-10-09T06:08:17.399Z,84.16
2022-10-09T06:09:17.345Z,84.16
2022-10-09T06:10:17.292Z,84.02
2022-10-09T06:11:17.240Z,84.06
2022-10-09T06:12:17.184Z,83.68
2022-10-09T06:13:17.130Z,84.16
2022-10-09T06:14:17.076Z,83.97
2022-10-09T06:15:17.021Z,84.06
2022-10-09T06:16:17.029Z,83.93
2022-10-09T06:17:16.923Z,84.06
2022-10-09T06:18:16.860Z,83.87
2022-10-09T06:19:16.812Z,83.87
2022-10-09T06:20:16.752Z,83.87
2022-10-09T06:21:16.698Z,83.97
2022-10-09T06:22:16.647Z,84.06
2022-10-09T06:23:16.591Z,83.97
2022-10-09T06:24:16.538Z,83.87
2022-10-09T06:25:16.482Z,83.87
2022-10-09T06:26:16.429Z,83.36
2022-10-09T06:27:16.374Z,83.97
2022-10-09T06:28:16.375Z,84.06
2022-10-09T06:29:16.267Z,84.06
2022-10-09T06:30:16.214Z,84.26
2022-10-09T06:31:16.328Z,84.26
2022-10-09T06:32:16.107Z,83.83
2022-10-09T06:33:16.058Z,83.97
2022-10-09T06:34:15.999Z,83.01
2022-10-09T06:35:15.951Z,83.01
2022-10-09T06:36:15.890Z,83.49
2022-10-09T06:37:15.838Z,83.78
2022-10-09T06:38:15.786Z,83.49
2022-10-09T06:39:15.730Z,84.06
2022-10-09T06:40:15.674Z,83.87
2022-10-09T06:41:15.621Z,83.87
2022-10-09T06:42:15.567Z,84.06
2022-10-09T06:43:15.513Z,83.97
2022-10-09T06:44:16.890Z,83.87
2022-10-09T06:45:15.404Z,83.87
2022-10-09T06:46:15.423Z,84.02
2022-10-09T06:47:15.296Z,83.87
2022-10-09T06:48:15.243Z,83.97
2022-10-09T06:49:15.190Z,84.26
2022-10-09T06:50:15.135Z,84.06
2022-10-09T06:51:15.087Z,84.26
2022-10-09T06:52:15.028Z,84.22
2022-10-09T06:53:14.973Z,84.22
2022-10-09T06:54:14.921Z,84.06
2022-10-09T06:55:14.864Z,84.02
2022-10-09T06:56:14.811Z,84.16
2022-10-09T06:57:14.769Z,84.12
2022-10-09T06:58:14.705Z,84.22
2022-10-09T06:59:14.650Z,84.16
2022-10-09T07:00:14.596Z,84.41
2022-10-09T07:01:14.592Z,84.45
2022-10-09T07:02:14.530Z,84.31
2022-10-09T07:03:14.497Z,84.50
2022-10-09T07:04:14.397Z,84.41
2022-10-09T07:05:14.325Z,84.69
2022-10-09T07:06:14.274Z,84.59
2022-10-09T07:07:14.225Z,84.26
2022-10-09T07:08:14.889Z,84.35
2022-10-09T07:09:14.114Z,84.50
2022-10-09T07:10:14.056Z,84.31
2022-10-09T07:11:14.002Z,84.26
2022-10-09T07:12:13.957Z,84.31
2022-10-09T07:13:13.895Z,84.26
2022-10-09T07:14:13.841Z,84.26
2022-10-09T07:15:13.785Z,84.31
2022-10-09T07:16:13.771Z,84.35
2022-10-09T07:17:13.677Z,84.55
2022-10-09T07:18:13.633Z,84.69
2022-10-09T07:19:13.568Z,84.88
2022-10-09T07:20:13.518Z,84.69
2022-10-09T07:21:13.462Z,84.35
2022-10-09T07:22:13.408Z,84.55
2022-10-09T07:23:13.359Z,84.83
2022-10-09T07:24:13.302Z,84.79
2022-10-09T07:25:13.246Z,84.98
2022-10-09T07:26:13.192Z,85.08
2022-10-09T07:27:13.138Z,85.17
2022-10-09T07:28:13.111Z,84.98
2022-10-09T07:29:13.028Z,84.98
2022-10-09T07:30:12.983Z,85.41
2022-10-09T07:31:12.968Z,84.74
2022-10-09T07:32:12.869Z,84.55
2022-10-09T07:33:12.814Z,85.41
2022-10-09T07:34:12.762Z,85.27
2022-10-09T07:35:12.705Z,85.41
2022-10-09T07:36:12.655Z,85.31
2022-10-09T07:37:12.596Z,85.12
2022-10-09T07:38:12.544Z,85.21
2022-10-09T07:39:12.495Z,85.12
2022-10-09T07:40:12.436Z,85.21
2022-10-09T07:41:12.382Z,85.21
2022-10-09T07:42:12.330Z,85.12
2022-10-09T07:43:12.272Z,85.69
2022-10-09T07:44:12.260Z,85.65
2022-10-09T07:45:12.171Z,85.60
2022-10-09T07:46:12.141Z,85.36
2022-10-09T07:47:12.058Z,85.60
2022-10-09T07:48:12.017Z,85.60
2022-10-09T07:49:11.948Z,85.69
2022-10-09T07:50:11.898Z,85.60
2022-10-09T07:51:11.841Z,85.60
2022-10-09T07:52:11.787Z,85.50
2022-10-09T07:53:11.735Z,85.98
2022-10-09T07:54:11.679Z,85.36
2022-10-09T07:55:11.636Z,85.98
2022-10-09T07:56:11.572Z,85.98
2022-10-09T07:57:11.519Z,85.65
2022-10-09T07:58:11.466Z,85.60
2022-10-09T07:59:11.408Z,86.04
2022-10-09T08:00:11.353Z,85.65
2022-10-09T08:01:14.008Z,85.88
2022-10-09T08:02:11.289Z,85.88
2022-10-09T08:03:11.192Z,86.08
2022-10-09T08:04:11.148Z,85.75
2022-10-09T08:05:11.083Z,86.13
2022-10-09T08:06:11.031Z,86.17
2022-10-09T08:07:10.976Z,86.17
2022-10-09T08:08:10.924Z,86.27
2022-10-09T08:09:10.869Z,86.17
2022-10-09T08:10:10.821Z,85.79
2022-10-09T08:11:10.772Z,85.60
2022-10-09T08:12:10.710Z,86.08
2022-10-09T08:13:10.653Z,85.79
2022-10-09T08:14:13.172Z,85.88
2022-10-09T08:15:10.553Z,85.50
2022-10-09T08:16:10.543Z,85.50
2022-10-09T08:17:10.436Z,86.36
2022-10-09T08:18:10.383Z,86.17
2022-10-09T08:19:10.329Z,86.36
2022-10-09T08:20:10.275Z,85.98
2022-10-09T08:21:10.221Z,85.60
2022-10-09T08:22:10.173Z,85.50
2022-10-09T08:23:10.126Z,85.60
2022-10-09T08:24:10.080Z,85.88
2022-10-09T08:25:10.004Z,85.69
2022-10-09T08:26:09.952Z,85.60
2022-10-09T08:27:09.904Z,85.98
2022-10-09T08:28:09.878Z,85.60
2022-10-09T08:29:09.787Z,85.88
2022-10-09T08:30:09.736Z,86.08
2022-10-09T08:31:09.780Z,85.79
2022-10-09T08:32:09.627Z,85.60
2022-10-09T08:33:09.576Z,85.60
2022-10-09T08:34:09.520Z,85.50
2022-10-09T08:35:09.464Z,85.88
2022-10-09T08:36:09.414Z,85.88
2022-10-09T08:37:09.356Z,85.88
2022-10-09T08:38:21.296Z,86.08
2022-10-09T08:39:09.249Z,85.88
2022-10-09T08:40:09.197Z,85.88
2022-10-09T08:41:09.140Z,85.88
2022-10-09T08:42:09.089Z,85.98
2022-10-09T08:43:09.039Z,86.17
2022-10-09T08:44:08.980Z,85.50
2022-10-09T08:45:08.923Z,85.79
2022-10-09T08:46:08.904Z,85.79
2022-10-09T08:47:08.817Z,85.88
2022-10-09T08:48:08.762Z,85.69
2022-10-09T08:49:08.707Z,85.69
2022-10-09T08:50:08.657Z,85.60
2022-10-09T08:51:08.603Z,85.79
2022-10-09T08:52:08.548Z,85.60
2022-10-09T08:53:08.492Z,85.79
2022-10-09T08:54:08.443Z,85.88
2022-10-09T08:55:08.384Z,85.88
2022-10-09T08:56:08.331Z,85.88
2022-10-09T08:57:08.284Z,85.98
2022-10-09T08:58:08.226Z,85.69
2022-10-09T08:59:08.175Z,85.69
2022-10-09T09:00:08.116Z,85.69
2022-10-09T09:01:08.061Z,85.69
2022-10-09T09:02:08.149Z,86.27
2022-10-09T09:03:08.029Z,85.88
2022-10-09T09:04:07.901Z,85.79
2022-10-09T09:05:07.845Z,85.98
2022-10-09T09:06:07.796Z,85.69
2022-10-09T09:07:07.738Z,85.98
2022-10-09T09:08:07.686Z,85.79
2022-10-09T09:09:07.628Z,86.17
2022-10-09T09:10:07.577Z,85.60
2022-10-09T09:11:07.520Z,85.98
2022-10-09T09:12:07.469Z,85.79
2022-10-09T09:13:07.413Z,85.60
2022-10-09T09:14:07.361Z,85.60
2022-10-09T09:15:07.310Z,85.88
2022-10-09T09:16:07.287Z,86.08
2022-10-09T09:17:07.198Z,85.60
2022-10-09T09:18:07.147Z,85.88
2022-10-09T09:19:07.089Z,85.88
2022-10-09T09:20:07.036Z,85.60
2022-10-09T09:21:06.982Z,85.50
2022-10-09T09:22:06.929Z,85.50
2022-10-09T09:23:06.874Z,85.60
2022-10-09T09:24:06.820Z,85.50
2022-10-09T09:25:06.765Z,85.60
2022-10-09T09:26:06.714Z,85.79
2022-10-09T09:27:06.670Z,85.79
2022-10-09T09:28:12.131Z,85.79
2022-10-09T09:29:06.554Z,85.79
2022-10-09T09:30:06.499Z,85.79
2022-10-09T09:31:06.522Z,85.98
2022-10-09T09:32:06.396Z,85.69
2022-10-09T09:33:06.336Z,85.60
2022-10-09T09:34:06.280Z,85.79
2022-10-09T09:35:06.228Z,85.98
2022-10-09T09:36:06.172Z,85.69
2022-10-09T09:37:06.119Z,85.98
2022-10-09T09:38:06.065Z,86.02
2022-10-09T09:39:55.626Z,85.79
2022-10-09T09:40:35.542Z,85.83
2022-10-09T09:41:05.912Z,85.69
2022-10-09T09:42:05.849Z,85.69
2022-10-09T09:43:05.797Z,86.02
2022-10-09T09:44:05.742Z,85.64
2022-10-09T09:45:05.690Z,85.93
2022-10-09T09:46:05.663Z,85.69
2022-10-09T09:47:05.587Z,85.93
2022-10-09T09:48:05.526Z,85.83
2022-10-09T09:49:09.314Z,85.69
2022-10-09T09:50:05.417Z,85.98
2022-10-09T09:51:26.928Z,85.54
2022-10-09T09:52:05.308Z,85.50
2022-10-09T09:53:05.262Z,85.41
2022-10-09T09:54:05.208Z,85.60
2022-10-09T09:55:05.157Z,85.16
2022-10-09T09:56:05.102Z,85.12
2022-10-09T09:57:13.777Z,85.35
2022-10-09T09:58:04.988Z,85.12
2022-10-09T09:59:04.935Z,85.25
2022-10-09T10:00:04.880Z,85.12
2022-10-09T10:01:04.861Z,84.83
2022-10-09T10:02:04.850Z,85.35
2022-10-09T10:03:04.729Z,84.97
2022-10-09T10:04:04.664Z,85.45
2022-10-09T10:05:04.610Z,84.88
2022-10-09T10:06:04.555Z,85.25
2022-10-09T10:07:04.503Z,85.25
2022-10-09T10:08:04.449Z,85.06
2022-10-09T10:09:04.397Z,84.92
2022-10-09T10:10:04.341Z,85.06
2022-10-09T10:11:04.293Z,84.78
2022-10-09T10:12:04.240Z,85.06
2022-10-09T10:13:04.182Z,84.88
2022-10-09T10:14:04.124Z,85.06
2022-10-09T10:15:04.074Z,85.25
2022-10-09T10:16:04.058Z,85.16
2022-10-09T10:17:03.963Z,84.78
2022-10-09T10:18:03.909Z,84.88
2022-10-09T10:19:04.349Z,85.06
2022-10-09T10:20:03.801Z,84.58
2022-10-09T10:21:03.748Z,84.88
2022-10-09T10:22:03.696Z,84.78
2022-10-09T10:23:03.641Z,84.88
2022-10-09T10:24:03.646Z,84.30
2022-10-09T10:25:03.535Z,84.30
2022-10-09T10:26:03.484Z,84.58
2022-10-09T10:27:03.426Z,84.30
2022-10-09T10:28:03.413Z,84.58
2022-10-09T10:29:03.319Z,84.20
2022-10-09T10:30:03.271Z,84.58
2022-10-09T10:31:03.263Z,84.49
2022-10-09T10:32:03.162Z,84.68
2022-10-09T10:33:03.108Z,84.58
2022-10-09T10:34:03.054Z,84.58
2022-10-09T10:35:03.001Z,84.78
2022-10-09T10:36:02.945Z,84.78
2022-10-09T10:37:03.534Z,84.78
2022-10-09T10:38:02.834Z,84.39
2022-10-09T10:39:02.781Z,84.39
2022-10-09T10:40:02.730Z,84.49
2022-10-09T10:41:02.677Z,84.58
2022-10-09T10:42:02.619Z,84.20
2022-10-09T10:43:02.566Z,84.39
2022-10-09T10:44:02.511Z,84.20
2022-10-09T10:45:02.459Z,84.11
2022-10-09T10:46:02.401Z,84.30
2022-10-09T10:47:02.351Z,84.20
2022-10-09T10:48:02.294Z,84.30
2022-10-09T10:49:02.243Z,84.20
2022-10-09T10:50:02.202Z,84.30
2022-10-09T10:51:02.183Z,84.49
2022-10-09T10:52:02.078Z,84.39
2022-10-09T10:53:02.027Z,84.49
2022-10-09T10:54:01.975Z,84.39
2022-10-09T10:55:01.922Z,84.20
2022-10-09T10:56:05.187Z,84.49
2022-10-09T10:57:01.815Z,84.49
2022-10-09T10:58:01.756Z,84.30
2022-10-09T10:59:01.710Z,84.11
2022-10-09T11:00:01.650Z,84.11
2022-10-09T11:01:01.637Z,84.01
2022-10-09T11:02:01.543Z,84.20
2022-10-09T11:03:01.518Z,84.11
2022-10-09T11:04:02.983Z,84.11
2022-10-09T11:05:01.382Z,83.92
2022-10-09T11:06:01.326Z,84.01
2022-10-09T11:07:01.282Z,83.82
2022-10-09T11:08:01.219Z,84.11
2022-10-09T11:09:01.166Z,84.34
2022-10-09T11:10:01.113Z,84.05
2022-10-09T11:11:01.059Z,84.25
2022-10-09T11:12:01.004Z,83.82
2022-10-09T11:13:01.276Z,83.76
2022-10-09T11:14:00.905Z,83.72
2022-10-09T11:15:00.845Z,83.67
2022-10-09T11:16:00.871Z,84.05
2022-10-09T11:17:00.739Z,83.58
2022-10-09T11:18:00.681Z,83.67
2022-10-09T11:19:00.630Z,83.95
2022-10-09T11:20:00.578Z,83.67
2022-10-09T11:21:00.525Z,83.86
2022-10-09T11:22:00.466Z,83.86
2022-10-09T11:23:00.423Z,83.86
2022-10-09T11:24:00.361Z,84.05
2022-10-09T11:25:00.307Z,83.86
2022-10-09T11:26:00.253Z,83.95
2022-10-09T11:27:03.376Z,83.86
2022-10-09T11:28:00.144Z,83.67
2022-10-09T11:29:00.097Z,83.67
2022-10-09T11:30:00.037Z,83.76
2022-10-09T11:30:59.988Z,83.95
2022-10-09T11:31:59.977Z,83.67
2022-10-09T11:32:59.881Z,84.15
2022-10-09T11:33:59.823Z,84.25
2022-10-09T11:34:59.772Z,84.25
2022-10-09T11:35:59.715Z,84.34
2022-10-09T11:36:59.664Z,84.44
2022-10-09T11:37:59.609Z,84.63
2022-10-09T11:38:59.567Z,84.63
2022-10-09T11:39:59.505Z,84.58
2022-10-09T11:41:01.532Z,84.72
2022-10-09T11:41:59.397Z,84.63
2022-10-09T11:42:59.345Z,84.44
2022-10-09T11:43:59.287Z,84.39
2022-10-09T11:44:59.235Z,84.30
2022-10-09T11:45:59.245Z,84.34
2022-10-09T11:47:01.754Z,84.39
2022-10-09T11:47:59.073Z,84.82
2022-10-09T11:48:59.020Z,84.63
2022-10-09T11:49:58.979Z,84.63
2022-10-09T11:50:58.921Z,84.44
2022-10-09T11:51:58.858Z,84.53
2022-10-09T11:52:58.805Z,84.63
2022-10-09T11:53:58.754Z,84.72
2022-10-09T11:54:58.709Z,84.91
2022-10-09T11:55:58.643Z,84.91
2022-10-09T11:56:58.591Z,84.91
2022-10-09T11:57:58.538Z,84.72
2022-10-09T11:58:58.522Z,85.11
2022-10-09T11:59:58.429Z,84.82
2022-10-09T12:00:58.497Z,85.11
2022-10-09T12:01:58.354Z,84.63
2022-10-09T12:02:58.274Z,84.44
2022-10-09T12:04:00.645Z,84.53
2022-10-09T12:04:58.162Z,84.44
2022-10-09T12:05:58.111Z,84.34
2022-10-09T12:06:58.058Z,84.44
2022-10-09T12:07:58.002Z,84.34
2022-10-09T12:08:57.949Z,84.44
2022-10-09T12:09:57.894Z,84.53
2022-10-09T12:10:57.851Z,84.82
2022-10-09T12:11:57.786Z,84.91
2022-10-09T12:12:57.737Z,84.63
2022-10-09T12:13:57.679Z,84.82
2022-10-09T12:14:57.631Z,85.01
2022-10-09T12:15:57.572Z,84.82
2022-10-09T12:16:57.599Z,84.82
2022-10-09T12:17:57.970Z,85.11
2022-10-09T12:18:57.415Z,84.82
2022-10-09T12:20:00.927Z,84.91
2022-10-09T12:20:57.307Z,85.30
2022-10-09T12:21:57.251Z,85.49
2022-10-09T12:23:21.668Z,85.21
2022-10-09T12:23:57.144Z,85.01
2022-10-09T12:24:57.094Z,84.72
2022-10-09T12:25:57.038Z,85.11
2022-10-09T12:26:56.992Z,84.91
2022-10-09T12:27:56.933Z,84.91
2022-10-09T12:28:56.879Z,85.21
2022-10-09T12:29:56.825Z,85.01
2022-10-09T12:30:56.858Z,85.11
2022-10-09T12:31:56.716Z,84.91
2022-10-09T12:32:56.664Z,85.11
2022-10-09T12:33:56.609Z,85.01
2022-10-09T12:35:03.476Z,85.01
2022-10-09T12:35:56.503Z,85.01
2022-10-09T12:36:56.452Z,85.11
2022-10-09T12:37:56.396Z,85.11
2022-10-09T12:38:56.400Z,85.11
2022-10-09T12:39:56.288Z,85.11
2022-10-09T12:40:56.238Z,84.82
2022-10-09T12:41:56.184Z,84.72
2022-10-09T12:42:56.141Z,84.25
2022-10-09T12:43:56.075Z,84.44
2022-10-09T12:44:56.027Z,84.44
2022-10-09T12:45:56.048Z,84.44
2022-10-09T12:46:55.945Z,84.53
2022-10-09T12:47:55.860Z,84.34
2022-10-09T12:48:55.808Z,84.53
2022-10-09T12:49:55.758Z,84.34
2022-10-09T12:50:55.717Z,84.44
2022-10-09T12:51:56.446Z,84.25